X  CloseMetar Aviation Weather Data     KMSY Louis Armstrong New Orleans International

Temperature

45°F Temperature

27°F Dewpoint

49% Humidity



Wind

17 MPH

27 KM/H

 8 M/S

15 KTS



350°
Due North
Current Conditions

Partly Cloudy Partly Cloudy
Pressure 1033.52 (hPa) - 30.52 (in)
Visibility 10 (mi) - 16.1 (km)
Airport
Airport-code KMSY

Location Louis Armstrong New Orleans International 5 (mi)

Metar:
KMSY 201553Z 35015G19KT 10SM FEW250 07/M03 A3052 RMK AO2 SLP336 T00721033

Time: 01-20-2020 09:53